Latest Weather Observations for Charleville

IDQ60801

Issued at 3:02 am EST Monday 8 February 2016 (issued every 30 minutes, with the page automatically refreshed every 10 minutes)

About weather observations | Map of weather stations | Latest weather observations for QLD | Other Formats
Station Details ID: 044021 Name: CHARLEVILLE AERO Lat: -26.41 Lon: 146.26 Height: 301.6 m
Data from the previous 72 hours. | See also: Recent months at Charleville
Date/Time
EST
Temp
°C
App
Temp
°C
Dew
Point
Rel
Hum
%
Delta-T
°C
Wind Press
QNH
hPa
Press
MSL
hPa
Rain
since 9 am
mm
Dir
 
Spd
km/h
Gust
km/h
Spd
kts
Gust
kts
08/03:00am 21.0 23.4 20.0 94 0.6 SSE 7 9 4 5 1013.4 1011.6 1.4
08/02:30am 21.3 23.8 20.2 93 0.7 E 7 7 4 4 1013.4 - 1.4
08/02:00am 20.9 24.7 20.1 95 0.5 CALM 0 4 0 2 1013.5 - 1.4
08/01:30am 21.5 24.0 20.3 93 0.8 NE 7 9 4 5 1013.8 - 1.4
08/01:00am 21.9 24.5 20.4 91 1.0 NE 7 9 4 5 1014.1 - 1.4
08/12:30am 22.1 24.7 20.5 91 1.0 E 7 7 4 4 1014.5 - 1.4
08/12:00am 22.4 25.0 20.5 89 1.2 ESE 7 7 4 4 1014.8 1013.0 1.4
 
Date/Time
EST
Temp
°C
App
Temp
°C
Dew
Point
Rel
Hum
%
Delta-T
°C
Wind Press
QNH
hPa
Press
MSL
hPa
Rain
since 9 am
mm
Dir
 
Spd
km/h
Gust
km/h
Spd
kts
Gust
kts
07/11:30pm 23.0 25.2 20.3 85 1.8 SE 9 11 5 6 1014.8 - 1.4
07/11:00pm 22.8 25.4 20.5 87 1.5 SE 7 9 4 5 1014.9 - 1.4
07/10:30pm 23.3 25.9 20.5 84 1.8 SE 7 9 4 5 1014.9 - 1.4
07/10:00pm 23.4 26.4 20.9 86 1.7 E 6 7 3 4 1014.8 - 1.4
07/09:30pm 24.0 27.7 20.7 82 2.2 ENE 2 6 1 3 1014.5 - 1.4
07/09:00pm 24.1 27.4 20.8 82 2.2 E 4 7 2 4 1014.3 1012.6 1.4
07/08:30pm 24.3 28.4 20.8 81 2.3 CALM 0 0 0 0 1014.1 - 1.4
07/08:00pm 24.6 26.4 20.4 77 2.8 NE 11 15 6 8 1013.8 - 1.4
07/07:30pm 25.2 25.9 18.9 68 4.1 E 13 17 7 9 1013.3 - 1.4
07/07:00pm 25.4 25.7 18.7 66 4.3 E 15 19 8 10 1012.9 - 1.4
07/06:30pm 25.6 25.8 18.5 65 4.6 ESE 15 20 8 11 1012.6 - 1.4
07/06:00pm 25.8 25.4 18.0 62 5.0 ESE 17 26 9 14 1012.3 1010.5 1.4
07/05:30pm 26.2 23.6 16.8 56 5.9 ESE 26 37 14 20 1012.0 - 1.4
07/05:00pm 26.6 24.4 16.9 55 6.1 ESE 24 39 13 21 1011.8 - 1.2
07/04:30pm 25.9 25.8 18.8 65 4.6 E 17 24 9 13 1011.8 - 1.2
07/04:00pm 25.5 25.5 18.9 67 4.3 E 17 22 9 12 1011.9 - 1.2
07/03:30pm 25.8 25.2 18.9 65 4.5 E 20 30 11 16 1012.0 - 1.2
07/03:00pm 25.5 26.0 20.0 71 3.6 E 17 24 9 13 1012.1 1010.3 1.2
07/02:30pm 25.0 25.2 20.1 74 3.2 ESE 19 26 10 14 1012.3 - 1.2
07/02:00pm 24.3 24.9 20.3 78 2.6 ESE 17 26 9 14 1012.4 - 1.2
07/01:30pm 23.3 24.1 21.4 89 1.3 SE 19 24 10 13 1012.8 - 1.2
07/01:00pm 22.4 22.4 20.9 91 1.0 SE 22 28 12 15 1012.8 - 1.2
07/12:30pm 23.3 23.1 20.5 84 1.8 ESE 22 30 12 16 1012.8 - 0.4
07/12:00pm 23.4 23.8 21.0 86 1.6 ESE 20 32 11 17 1013.0 1011.2 0.2
07/11:30am 23.1 24.8 20.9 87 1.5 ESE 13 19 7 10 1013.0 - 0.2
07/11:00am 23.8 24.3 20.1 80 2.4 E 17 22 9 12 1013.1 - 0.0
07/10:30am 24.3 23.8 19.1 73 3.4 E 20 32 11 17 1013.1 - 0.0
07/10:00am 24.2 23.7 19.1 73 3.3 E 20 32 11 17 1013.0 - 0.0
07/09:30am 24.2 24.0 19.3 74 3.2 E 19 28 10 15 1013.0 - 0.0
07/09:00am 23.7 23.2 19.1 75 3.0 E 20 28 11 15 1013.0 1011.2 8.0
07/08:30am 23.1 23.8 19.6 80 2.3 E 15 19 8 10 1012.9 - 8.0
07/08:00am 22.5 22.9 19.1 81 2.2 ESE 15 26 8 14 1012.7 - 8.0
07/07:30am 22.2 22.7 19.3 83 1.9 ESE 15 19 8 10 1012.3 - 8.0
07/07:00am 21.8 22.6 19.1 84 1.7 E 13 19 7 10 1012.1 - 8.0
07/06:30am 21.6 22.3 18.9 84 1.7 ESE 13 17 7 9 1011.8 - 8.0
07/06:00am 21.5 22.2 18.8 84 1.7 E 13 20 7 11 1011.4 1009.6 8.0
07/05:30am 21.5 22.3 19.0 86 1.6 E 13 19 7 10 1011.2 - 8.0
07/05:00am 21.4 22.2 19.1 87 1.5 ESE 13 19 7 10 1010.6 - 8.0
07/04:30am 21.3 22.7 19.5 89 1.2 E 11 17 6 9 1010.5 - 8.0
07/04:29am 21.3 22.7 19.5 89 1.2 E 11 17 6 9 1010.6 - 8.0
07/04:18am 21.1 22.6 19.7 92 0.9 ESE 11 15 6 8 1010.5 - 8.0
07/04:00am 21.1 22.2 19.6 91 1.0 ESE 13 17 7 9 1010.4 - 7.8
07/03:30am 21.3 22.2 19.3 88 1.3 ESE 13 19 7 10 1010.3 - 7.8
07/03:00am 21.1 21.7 19.4 90 1.1 ESE 15 22 8 12 1010.4 1008.6 7.8
07/02:30am 21.0 21.2 19.4 90 1.0 ESE 17 26 9 14 1010.4 - 7.8
07/02:20am 21.0 20.8 19.3 90 1.1 ESE 19 24 10 13 1010.3 - 7.8
07/02:09am 20.9 21.1 19.3 90 1.0 ESE 17 22 9 12 1010.4 - 7.8
07/02:05am 20.8 21.0 19.4 92 0.9 ESE 17 24 9 13 1010.4 - 7.8
07/02:00am 20.8 21.0 19.4 92 0.9 ESE 17 24 9 13 1010.4 - 7.8
07/01:30am 20.6 21.3 19.6 94 0.6 ESE 15 19 8 10 1010.6 - 7.8
07/01:00am 20.5 21.2 19.7 95 0.5 SE 15 19 8 10 1011.2 - 7.8
07/12:37am 20.5 22.1 19.9 96 0.4 SE 11 17 6 9 1011.5 - 7.8
07/12:30am 20.6 21.7 19.7 95 0.6 ESE 13 19 7 10 1011.5 - 7.8
07/12:17am 20.6 20.9 19.6 94 0.6 ESE 17 24 9 13 1011.6 - 7.8
07/12:00am 20.2 21.3 19.7 97 0.3 SE 13 19 7 10 1011.8 1010.0 7.8
 
Date/Time
EST
Temp
°C
App
Temp
°C
Dew
Point
Rel
Hum
%
Delta-T
°C
Wind Press
QNH
hPa
Press
MSL
hPa
Rain
since 9 am
mm
Dir
 
Spd
km/h
Gust
km/h
Spd
kts
Gust
kts
06/11:36pm 20.0 21.3 19.4 96 0.4 SE 11 15 6 8 1012.0 - 7.8
06/11:30pm 19.9 21.2 19.4 97 0.3 SE 11 15 6 8 1012.0 - 7.8
06/11:00pm 19.8 20.7 19.3 97 0.3 SE 13 17 7 9 1012.1 - 7.8
06/10:30pm 19.9 20.3 19.1 95 0.5 ESE 15 22 8 12 1012.2 - 7.8
06/10:06pm 20.0 20.2 19.3 96 0.4 ESE 17 22 9 12 1012.4 - 7.4
06/10:00pm 20.1 19.9 19.4 96 0.4 ESE 19 26 10 14 1012.4 - 7.4
06/09:41pm 20.4 20.8 19.8 96 0.4 ESE 17 22 9 12 1012.3 - 6.8
06/09:40pm 20.4 20.8 19.8 96 0.4 ESE 17 24 9 13 1012.3 - 6.8
06/09:30pm 20.5 20.5 19.8 96 0.5 ESE 19 28 10 15 1012.2 - 6.0
06/09:21pm 20.4 20.4 19.8 96 0.4 ESE 19 26 10 14 1012.1 - 5.4
06/09:00pm 20.5 20.3 19.7 95 0.5 ESE 20 30 11 16 1011.7 1009.9 3.4
06/08:30pm 20.7 20.6 19.6 93 0.7 ESE 19 28 10 15 1011.5 - 2.2
06/08:12pm 20.8 20.6 19.7 93 0.7 ESE 20 32 11 17 1011.0 - 1.8
06/08:00pm 20.9 20.7 19.8 93 0.7 ESE 20 33 11 18 1010.9 - 1.8
06/07:45pm 21.1 23.0 20.6 97 0.3 SE 11 17 6 9 1010.8 - 1.4
06/07:30pm 21.1 22.2 20.4 96 0.5 SE 15 20 8 11 1010.6 - 1.0
06/07:21pm 21.1 21.7 20.3 95 0.5 ESE 17 20 9 11 1010.5 - 0.8
06/07:04pm 21.3 21.5 20.1 93 0.8 ESE 19 26 10 14 1010.3 - 0.6
06/07:00pm 21.4 21.6 20.1 92 0.8 ESE 19 30 10 16 1010.2 - 0.6
06/06:30pm 21.7 21.9 20.1 91 1.0 ESE 19 26 10 14 1009.7 - 0.4
06/06:00pm 22.2 21.2 19.6 85 1.7 ESE 24 33 13 18 1009.3 1007.5 0.4
06/05:30pm 21.9 21.1 20.0 89 1.2 E 24 41 13 22 1008.9 - 0.4
06/05:19pm 21.9 21.1 20.0 89 1.2 ESE 24 32 13 17 1008.8 - 0.4
06/05:00pm 22.7 22.7 20.2 86 1.6 ESE 20 28 11 15 1008.6 - 0.4
06/04:30pm 22.7 21.6 20.2 86 1.6 E 26 39 14 21 1008.5 - 0.2
06/04:00pm 22.7 22.8 20.3 86 1.6 ESE 20 28 11 15 1008.4 - 0.2
06/03:30pm 22.5 21.4 20.2 87 1.5 E 26 37 14 20 1008.4 - 0.2
06/03:11pm 23.0 20.9 19.8 82 2.1 ESE 30 50 16 27 1008.4 - 0.2
06/03:00pm 22.7 21.0 19.7 83 1.9 ESE 28 35 15 19 1008.7 1006.9 0.2
06/02:30pm 23.8 21.6 18.8 73 3.2 E 28 41 15 22 1008.9 - 0.2
06/02:00pm 23.7 21.6 19.0 75 3.0 ESE 28 37 15 20 1009.0 - 0.2
06/01:30pm 24.1 21.8 18.4 70 3.6 E 28 37 15 20 1009.2 - 0.2
06/01:00pm 23.7 22.0 19.0 75 3.0 ESE 26 37 14 20 1009.4 - 0.2
06/12:30pm 24.2 23.1 19.4 74 3.1 ESE 24 35 13 19 1009.5 - 0.2
06/12:00pm 23.1 20.8 19.4 79 2.4 SE 30 41 16 22 1009.8 1008.0 0.2
06/11:53am 23.7 22.1 19.2 76 2.9 E 26 39 14 21 1009.8 - 0.2
06/11:30am 22.7 21.6 20.2 86 1.6 ESE 26 33 14 18 1010.1 - 0.2
06/11:00am 22.2 19.9 19.4 84 1.8 E 30 41 16 22 1010.2 - 0.2
06/10:30am 22.0 21.1 19.9 88 1.4 ESE 24 33 13 18 1010.4 - 0.2
06/10:00am 21.8 21.5 20.3 91 1.0 ESE 22 30 12 16 1010.4 - 0.2
06/09:30am 21.6 21.5 19.9 90 1.1 ESE 20 28 11 15 1010.4 - 0.2
06/09:21am 21.7 22.2 20.1 91 1.0 ESE 17 28 9 15 1010.3 - 0.2
06/09:20am 21.6 22.1 20.0 91 1.0 ESE 17 30 9 16 1010.3 - 0.2
06/09:00am 21.3 21.0 19.6 90 1.1 ESE 20 32 11 17 1010.3 1008.5 0.6
06/08:59am 21.4 21.1 19.6 89 1.2 ESE 20 32 11 17 1010.3 - 0.6
06/08:30am 21.1 21.0 19.6 91 1.0 ESE 19 28 10 15 1010.2 - 0.6
06/08:00am 20.8 20.3 19.2 90 1.0 ESE 20 28 11 15 1010.0 - 0.6
06/07:55am 20.8 20.4 19.3 91 1.0 ESE 20 28 11 15 1010.0 - 0.6
06/07:34am 21.0 20.8 19.7 92 0.8 ESE 20 37 11 20 1009.9 - 0.4
06/07:30am 21.0 20.3 19.5 91 1.0 ESE 22 37 12 20 1009.9 - 0.4
06/07:00am 20.9 21.7 19.8 93 0.7 ESE 15 26 8 14 1009.5 - 0.4
06/06:30am 21.5 22.6 19.6 89 1.2 E 13 19 7 10 1009.1 - 0.2
06/06:00am 21.5 22.2 19.6 89 1.2 ESE 15 20 8 11 1008.7 1006.9 0.2
06/05:30am 22.2 22.3 19.1 82 2.0 E 17 24 9 13 1008.4 - 0.2
06/05:00am 22.7 22.5 18.4 76 2.7 E 17 28 9 15 1008.0 - 0.2
06/04:30am 22.7 22.1 18.4 76 2.7 E 19 26 10 14 1007.8 - 0.2
06/04:00am 22.8 21.6 18.3 76 2.9 E 22 33 12 18 1007.5 - 0.2
06/03:30am 22.9 21.9 17.6 72 3.3 E 19 26 10 14 1007.5 - 0.2
06/03:00am 22.6 22.9 17.9 75 3.0 E 13 19 7 10 1007.8 1005.9 0.2
06/02:30am 22.4 22.3 17.9 75 2.8 E 15 24 8 13 1007.9 - 0.2
06/02:00am 22.9 22.2 17.4 71 3.4 E 17 30 9 16 1008.0 - 0.2
06/01:30am 22.9 21.7 17.4 71 3.4 ENE 20 32 11 17 1008.1 - 0.2
06/01:00am 23.0 21.8 17.6 71 3.4 ENE 20 32 11 17 1008.6 - 0.2
06/12:30am 23.1 22.1 17.5 70 3.5 ENE 19 30 10 16 1008.9 - 0.2
06/12:00am 23.3 22.1 17.1 68 3.9 ENE 19 26 10 14 1009.1 1007.3 0.2
 
Date/Time
EST
Temp
°C
App
Temp
°C
Dew
Point
Rel
Hum
%
Delta-T
°C
Wind Press
QNH
hPa
Press
MSL
hPa
Rain
since 9 am
mm
Dir
 
Spd
km/h
Gust
km/h
Spd
kts
Gust
kts
05/11:30pm 23.3 22.3 17.6 70 3.6 ENE 19 32 10 17 1009.5 - 0.2
05/11:00pm 23.3 22.1 18.4 74 3.1 ENE 22 33 12 18 1009.7 - 0.2
05/10:30pm 23.0 23.3 19.5 80 2.3 ENE 17 26 9 14 1009.5 - 0.2
05/10:00pm 23.0 22.9 19.6 81 2.2 ENE 19 26 10 14 1009.6 - 0.2
05/09:30pm 23.0 22.7 19.6 81 2.2 E 20 30 11 16 1009.6 - 0.2
05/09:00pm 22.9 22.9 19.8 83 2.0 E 19 32 10 17 1009.4 1007.6 0.2
05/08:30pm 23.1 22.6 20.0 83 2.0 E 22 30 12 16 1009.3 - 0.2
05/08:00pm 23.0 23.0 20.2 84 1.8 ESE 20 28 11 15 1009.2 - 0.2
05/07:30pm 22.8 23.0 20.5 87 1.5 ESE 20 26 11 14 1008.8 - 0.2
05/07:29pm 22.8 23.0 20.5 87 1.5 ESE 20 28 11 15 1008.8 - 0.2
05/07:14pm 23.2 23.3 20.3 84 1.9 ESE 20 32 11 17 1008.6 - 0.2
05/07:00pm 23.2 23.5 20.3 84 1.9 ESE 19 26 10 14 1008.3 - 0.2
05/06:30pm 23.3 23.4 20.3 83 2.0 SE 20 32 11 17 1008.1 - 0.2
05/06:00pm 24.8 24.4 19.3 71 3.6 ESE 20 30 11 16 1007.8 1005.9 0.2
05/05:30pm 25.3 25.1 19.4 70 3.8 ESE 19 28 10 15 1007.3 - 0.2
05/05:00pm 25.4 25.0 19.3 69 4.0 ESE 20 26 11 14 1007.0 - 0.2
05/04:30pm 25.6 25.5 19.5 69 4.0 ESE 19 28 10 15 1006.9 - 0.2
05/04:00pm 24.9 26.7 21.2 80 2.5 ESE 13 15 7 8 1006.9 - 0.2
05/03:30pm 24.5 26.6 21.0 81 2.3 SE 11 13 6 7 1007.1 - 0.2
05/03:00pm 25.9 25.7 19.7 68 4.1 E 20 28 11 15 1007.1 1005.3 0.0
05/02:30pm 27.2 26.7 18.7 59 5.5 ESE 19 26 10 14 1007.2 - 0.0
05/02:00pm 26.1 26.0 19.6 67 4.3 SE 19 28 10 15 1007.1 - 0.0
05/01:30pm 25.2 24.4 20.8 76 2.9 ESE 26 32 14 17 1007.4 - 0.0
05/01:00pm 26.7 25.9 19.3 64 4.8 SE 22 32 12 17 1007.4 - 0.0
05/12:30pm 26.9 26.6 19.5 64 4.8 SE 20 30 11 16 1007.7 - 0.0
05/12:00pm 27.6 26.4 19.3 60 5.4 ESE 24 32 13 17 1008.0 1006.1 0.0
05/11:30am 27.8 26.9 19.1 59 5.7 SE 22 32 12 17 1008.2 - 0.0
05/11:00am 28.3 27.5 19.2 57 6.0 SE 22 30 12 16 1008.0 - 0.0
05/10:30am 28.3 27.2 19.4 58 5.8 ESE 24 33 13 18 1007.9 - 0.0
05/10:00am 28.2 27.4 19.2 58 5.9 ESE 22 28 12 15 1007.8 - 0.0
05/09:30am 27.9 26.8 18.6 57 6.0 ESE 22 28 12 15 1007.8 - 0.0
05/09:00am 28.1 27.5 18.4 55 6.3 ESE 19 24 10 13 1007.4 1005.6 0.0
05/08:30am 27.8 27.8 18.9 58 5.8 ESE 17 22 9 12 1007.0 - 0.0
05/08:00am 27.4 27.7 18.8 59 5.6 ESE 15 19 8 10 1006.9 - 0.0
05/07:30am 26.7 27.3 17.6 57 5.8 ESE 11 15 6 8 1006.6 - 0.0
05/07:00am 26.2 26.0 16.6 55 6.0 ESE 13 17 7 9 1006.2 - 0.0
05/06:30am 25.2 25.6 16.4 58 5.5 ESE 9 11 5 6 1006.0 - 0.0
05/06:00am 25.3 25.6 15.0 53 6.3 SSE 7 9 4 5 1005.4 1003.6 0.0
05/05:30am 25.5 25.8 15.0 52 6.4 SSW 7 9 4 5 1004.8 - 0.0
05/05:00am 25.4 27.1 15.3 53 6.2 CALM 0 0 0 0 1004.6 - 0.0
05/04:30am 25.9 27.7 15.4 52 6.4 CALM 0 0 0 0 1004.4 - 0.0
05/04:00am 26.4 26.9 14.9 49 7.0 NNW 6 13 3 7 1004.4 - 0.0
05/03:30am 26.5 26.9 14.7 48 7.2 S 6 9 3 5 1004.2 - 0.0

Other Formats:

Comma delimited format used in spreadsheet applications
http://www.bom.gov.au/fwo/IDQ60801/IDQ60801.94510.axf

JavaScript Object Notation format (JSON) in row-major order
http://www.bom.gov.au/fwo/IDQ60801/IDQ60801.94510.json